Time;durP1;ratioP1;P1;durP2;ratioP2;P2;SDS_P1;SDS_P2;PMS_P1;PMS_P2;Temp;Humidity;BMP_temperature;BMP_pressure;BME280_temperature;BME280_humidity;BME280_pressure;Samples;Min_cycle;Max_cycle;Signal;HPM_P1;HPM_P2
2021/08/17 00:01:55;;;;;;;13.50;7.47;;;;;;;;;;4953989;29;20465;-75
2021/08/17 00:04:23;;;;;;;12.83;7.30;;;;;;;;;;4953962;28;20447;-76
2021/08/17 00:06:51;;;;;;;12.60;7.90;;;;;;;;;;4954032;29;20457;-76
2021/08/17 00:09:18;;;;;;;17.90;8.97;;;;;;;;;;4969940;28;20460;-75
2021/08/17 00:11:46;;;;;;;14.17;8.90;;;;;;;;;;4975488;28;20466;-75
2021/08/17 00:14:13;;;;;;;17.43;8.63;;;;;;;;;;4975378;28;20445;-75
2021/08/17 00:16:40;;;;;;;16.00;8.20;;;;;;;;;;4973023;28;20481;-76
2021/08/17 00:19:07;;;;;;;17.03;8.43;;;;;;;;;;4959322;28;20922;-75
2021/08/17 00:21:37;;;;;;;13.73;8.80;;;;;;;;;;4955677;28;20454;-74
2021/08/17 00:24:04;;;;;;;17.60;9.57;;;;;;;;;;4953828;28;20447;-75
2021/08/17 00:26:31;;;;;;;18.17;10.77;;;;;;;;;;4953656;29;20449;-74
2021/08/17 00:28:58;;;;;;;17.40;9.77;;;;;;;;;;4953856;29;20442;-74
2021/08/17 00:31:25;;;;;;;20.87;11.33;;;;;;;;;;4970255;28;20484;-74
2021/08/17 00:33:53;;;;;;;22.00;12.20;;;;;;;;;;4974943;28;20453;-74
2021/08/17 00:36:20;;;;;;;22.50;13.03;;;;;;;;;;4975173;28;20489;-74
2021/08/17 00:38:49;;;;;;;22.63;13.13;;;;;;;;;;4972547;28;20927;-75
2021/08/17 00:41:16;;;;;;;22.50;13.13;;;;;;;;;;4958990;28;20971;-75
2021/08/17 00:43:44;;;;;;;23.00;12.77;;;;;;;;;;4955123;28;20859;-74
2021/08/17 00:46:11;;;;;;;25.03;12.57;;;;;;;;;;4952668;28;20445;-76
2021/08/17 00:48:38;;;;;;;20.43;12.13;;;;;;;;;;4953087;28;20450;-75
2021/08/17 00:51:05;;;;;;;19.97;12.57;;;;;;;;;;4953425;28;20466;-75
2021/08/17 00:53:32;;;;;;;26.17;15.07;;;;;;;;;;4970489;28;20798;-75
2021/08/17 00:56:01;;;;;;;24.20;14.30;;;;;;;;;;4974892;28;20477;-75
2021/08/17 00:58:29;;;;;;;33.13;17.90;;;;;;;;;;4974796;28;20440;-75
2021/08/17 01:00:57;;;;;;;30.40;16.50;;;;;;;;;;4970899;28;20457;-75
2021/08/17 01:03:24;;;;;;;25.60;14.63;;;;;;;;;;4959284;28;20440;-74
2021/08/17 01:05:52;;;;;;;26.40;15.30;;;;;;;;;;4954858;28;20950;-74
2021/08/17 01:08:19;;;;;;;27.47;15.80;;;;;;;;;;4953187;28;20476;-76
2021/08/17 01:10:46;;;;;;;26.40;16.43;;;;;;;;;;4953077;29;20466;-74
2021/08/17 01:13:14;;;;;;;37.57;18.43;;;;;;;;;;4953311;29;20809;-75
2021/08/17 01:15:41;;;;;;;32.07;19.13;;;;;;;;;;4970766;28;20993;-75
2021/08/17 01:18:09;;;;;;;33.70;17.50;;;;;;;;;;4974721;28;20444;-75
2021/08/17 01:20:38;;;;;;;32.57;18.00;;;;;;;;;;4974678;28;20460;-74
2021/08/17 01:23:05;;;;;;;34.50;20.57;;;;;;;;;;4970152;28;20451;-75
2021/08/17 01:25:35;;;;;;;40.50;20.13;;;;;;;;;;4958990;28;20440;-74
2021/08/17 01:28:03;;;;;;;27.10;16.90;;;;;;;;;;4954163;28;20441;-75
2021/08/17 01:30:30;;;;;;;30.30;17.70;;;;;;;;;;4953042;28;20473;-74
2021/08/17 01:32:57;;;;;;;32.60;17.67;;;;;;;;;;4953060;28;20808;-75
2021/08/17 01:35:25;;;;;;;43.70;20.60;;;;;;;;;;4953258;28;20458;-75
2021/08/17 01:37:52;;;;;;;35.47;19.37;;;;;;;;;;4971994;28;20579;-76
2021/08/17 01:40:19;;;;;;;37.33;21.40;;;;;;;;;;4971783;28;20467;-76
2021/08/17 01:42:51;;;;;;;33.17;19.40;;;;;;;;;;4958336;28;20461;-75
2021/08/17 01:45:19;;;;;;;38.50;19.43;;;;;;;;;;4966589;28;20437;-75
2021/08/17 01:47:46;;;;;;;31.90;20.03;;;;;;;;;;4972213;28;20444;-75
2021/08/17 01:50:14;;;;;;;33.10;19.60;;;;;;;;;;4971920;28;20475;-75
2021/08/17 01:52:41;;;;;;;32.27;19.93;;;;;;;;;;4955422;28;20451;-76
2021/08/17 01:55:09;;;;;;;35.20;21.30;;;;;;;;;;4973558;28;20835;-76
2021/08/17 01:57:37;;;;;;;37.70;21.23;;;;;;;;;;4976654;28;20977;-74
2021/08/17 02:00:06;;;;;;;40.37;21.90;;;;;;;;;;4977843;28;20476;-75
2021/08/17 02:02:33;;;;;;;40.80;22.67;;;;;;;;;;4974083;28;20798;-75
2021/08/17 02:05:00;;;;;;;36.93;21.63;;;;;;;;;;4962174;28;20517;-74
2021/08/17 02:07:27;;;;;;;34.53;19.63;;;;;;;;;;4957822;28;20445;-75
2021/08/17 02:09:55;;;;;;;38.07;21.73;;;;;;;;;;4955942;28;20830;-76
2021/08/17 02:12:22;;;;;;;32.63;20.77;;;;;;;;;;4956190;28;20444;-75
2021/08/17 02:14:49;;;;;;;38.67;21.50;;;;;;;;;;4956203;28;20450;-76
2021/08/17 02:17:17;;;;;;;40.20;21.40;;;;;;;;;;4956662;28;20489;-74
2021/08/17 02:19:46;;;;;;;42.23;21.83;;;;;;;;;;4977542;28;20936;-75
2021/08/17 02:22:13;;;;;;;35.07;20.87;;;;;;;;;;4977370;28;20500;-74
2021/08/17 02:24:40;;;;;;;32.53;20.80;;;;;;;;;;4956396;28;20461;-75
2021/08/17 02:27:08;;;;;;;33.37;20.23;;;;;;;;;;4961732;28;20433;-75
2021/08/17 02:29:35;;;;;;;39.10;22.03;;;;;;;;;;4957238;28;20973;-76
2021/08/17 02:32:02;;;;;;;35.40;21.13;;;;;;;;;;4955774;28;20446;-76
2021/08/17 02:34:31;;;;;;;40.17;22.17;;;;;;;;;;4955766;29;20446;-75
2021/08/17 02:36:58;;;;;;;34.90;19.80;;;;;;;;;;4955667;29;20493;-74
2021/08/17 02:39:25;;;;;;;41.53;22.30;;;;;;;;;;4974075;28;20965;-76
2021/08/17 02:41:52;;;;;;;44.03;20.87;;;;;;;;;;4976936;28;20473;-76
2021/08/17 02:44:20;;;;;;;37.23;21.60;;;;;;;;;;4977214;28;20799;-75
2021/08/17 02:46:47;;;;;;;33.60;19.70;;;;;;;;;;4972532;28;20434;-75
2021/08/17 02:49:14;;;;;;;37.50;21.00;;;;;;;;;;4960998;28;20433;-75
2021/08/17 02:51:43;;;;;;;37.60;21.70;;;;;;;;;;4956692;28;20457;-74
2021/08/17 02:54:10;;;;;;;42.83;22.33;;;;;;;;;;4955424;29;20442;-75
2021/08/17 02:56:37;;;;;;;34.53;19.97;;;;;;;;;;4955319;28;20493;-75
2021/08/17 02:59:04;;;;;;;40.57;21.10;;;;;;;;;;4955576;28;20461;-75
2021/08/17 03:01:31;;;;;;;37.40;21.00;;;;;;;;;;4974016;28;20480;-76
2021/08/17 03:03:58;;;;;;;42.43;23.37;;;;;;;;;;4959599;28;20447;-75
2021/08/17 03:06:25;;;;;;;38.80;21.57;;;;;;;;;;4976828;28;20455;-74
2021/08/17 03:08:54;;;;;;;34.10;20.40;;;;;;;;;;4971009;28;20433;-76
2021/08/17 03:11:21;;;;;;;34.90;20.50;;;;;;;;;;4960749;28;20454;-75
2021/08/17 03:13:48;;;;;;;31.23;19.73;;;;;;;;;;4970340;28;20445;-75
2021/08/17 03:16:15;;;;;;;38.57;21.50;;;;;;;;;;4974058;28;20452;-74
2021/08/17 03:18:42;;;;;;;35.27;19.40;;;;;;;;;;4974233;28;20436;-75
2021/08/17 03:21:09;;;;;;;35.23;20.33;;;;;;;;;;4974621;28;20712;-74
2021/08/17 03:23:37;;;;;;;35.00;19.80;;;;;;;;;;4975686;28;20468;-75
2021/08/17 03:26:05;;;;;;;35.10;20.77;;;;;;;;;;4976501;28;20464;-76
2021/08/17 03:28:32;;;;;;;32.00;20.10;;;;;;;;;;4976449;28;20438;-76
2021/08/17 03:30:59;;;;;;;34.17;20.57;;;;;;;;;;4970770;28;20458;-76
2021/08/17 03:33:27;;;;;;;31.20;19.03;;;;;;;;;;4960542;28;20437;-76
2021/08/17 03:35:54;;;;;;;37.20;19.50;;;;;;;;;;4956018;28;20815;-76
2021/08/17 03:38:21;;;;;;;32.63;19.23;;;;;;;;;;4954443;29;20496;-76
2021/08/17 03:40:48;;;;;;;28.37;17.60;;;;;;;;;;4954623;28;20465;-76
2021/08/17 03:43:17;;;;;;;33.07;19.27;;;;;;;;;;4954631;28;20478;-74
2021/08/17 03:45:45;;;;;;;35.50;18.17;;;;;;;;;;4974161;28;21618;-76
2021/08/17 03:48:12;;;;;;;32.43;19.63;;;;;;;;;;4959007;28;20957;-75
2021/08/17 03:50:39;;;;;;;30.83;18.20;;;;;;;;;;4975976;28;20819;-76
2021/08/17 03:53:06;;;;;;;28.90;16.90;;;;;;;;;;4970072;28;20426;-76
2021/08/17 03:55:33;;;;;;;32.93;18.80;;;;;;;;;;4960058;28;20452;-75
2021/08/17 03:58:00;;;;;;;29.60;17.57;;;;;;;;;;4955257;28;20490;-74
2021/08/17 04:00:32;;;;;;;28.67;17.07;;;;;;;;;;4954010;28;20819;-75
2021/08/17 04:02:59;;;;;;;30.53;17.90;;;;;;;;;;4954136;28;20453;-75
2021/08/17 04:05:27;;;;;;;30.77;17.37;;;;;;;;;;4937527;29;20445;-74
2021/08/17 04:07:54;;;;;;;33.47;19.27;;;;;;;;;;4974631;28;20841;-76
2021/08/17 04:10:21;;;;;;;28.70;17.77;;;;;;;;;;4958399;28;20465;-76
2021/08/17 04:12:49;;;;;;;28.20;17.97;;;;;;;;;;4975510;28;20445;-76
2021/08/17 04:15:16;;;;;;;32.70;18.00;;;;;;;;;;4969322;28;20433;-75
2021/08/17 04:17:44;;;;;;;28.67;17.60;;;;;;;;;;4942581;28;20476;-75
2021/08/17 04:20:12;;;;;;;31.60;18.07;;;;;;;;;;4970462;28;20465;-76
2021/08/17 04:22:40;;;;;;;28.10;16.30;;;;;;;;;;4973638;28;20441;-76
2021/08/17 04:25:08;;;;;;;29.47;16.30;;;;;;;;;;4955781;28;20453;-76
2021/08/17 04:27:35;;;;;;;31.53;18.20;;;;;;;;;;4973310;28;20453;-76
2021/08/17 04:30:02;;;;;;;34.03;18.10;;;;;;;;;;4955831;28;20461;-75
2021/08/17 04:32:30;;;;;;;29.73;16.70;;;;;;;;;;4955945;29;20456;-76
2021/08/17 04:34:58;;;;;;;29.57;18.33;;;;;;;;;;4956035;29;20446;-77
2021/08/17 04:37:25;;;;;;;32.80;19.87;;;;;;;;;;4957347;28;20578;-74
2021/08/17 04:39:52;;;;;;;36.33;19.10;;;;;;;;;;4959132;28;20452;-74
2021/08/17 04:42:20;;;;;;;32.97;18.37;;;;;;;;;;4970597;28;20483;-76
2021/08/17 04:44:47;;;;;;;28.70;18.33;;;;;;;;;;4972827;28;20450;-75
2021/08/17 04:47:14;;;;;;;26.53;17.50;;;;;;;;;;4972862;28;20893;-74
2021/08/17 04:49:41;;;;;;;36.40;18.97;;;;;;;;;;4964909;28;20468;-75
2021/08/17 04:52:09;;;;;;;28.70;17.60;;;;;;;;;;4973590;28;20449;-75
2021/08/17 04:54:38;;;;;;;30.73;19.60;;;;;;;;;;4975170;28;20449;-75
2021/08/17 04:57:05;;;;;;;35.20;19.00;;;;;;;;;;4974944;28;20477;-75
2021/08/17 04:59:32;;;;;;;33.97;21.57;;;;;;;;;;4967467;28;20504;-75
2021/08/17 05:01:59;;;;;;;30.90;19.00;;;;;;;;;;4958943;28;20807;-76
2021/08/17 05:04:26;;;;;;;37.93;19.43;;;;;;;;;;4953863;28;20811;-76
2021/08/17 05:06:54;;;;;;;32.17;18.70;;;;;;;;;;4952915;28;20446;-76
2021/08/17 05:09:22;;;;;;;29.70;17.80;;;;;;;;;;4953565;28;20442;-75
2021/08/17 05:11:49;;;;;;;31.10;18.17;;;;;;;;;;4954440;28;20473;-74
2021/08/17 05:14:17;;;;;;;36.40;19.80;;;;;;;;;;4974776;28;20449;-74
2021/08/17 05:16:44;;;;;;;30.07;17.90;;;;;;;;;;4974734;28;20440;-75
2021/08/17 05:19:11;;;;;;;31.67;18.83;;;;;;;;;;4974593;28;20443;-75
2021/08/17 05:21:38;;;;;;;31.47;17.97;;;;;;;;;;4966648;28;20468;-76
2021/08/17 05:24:06;;;;;;;26.67;15.23;;;;;;;;;;4959136;28;20803;-76
2021/08/17 05:26:34;;;;;;;24.63;16.07;;;;;;;;;;4953433;28;21146;-76
2021/08/17 05:29:01;;;;;;;25.53;15.60;;;;;;;;;;4952935;28;20463;-75
2021/08/17 05:31:29;;;;;;;27.00;17.50;;;;;;;;;;4953804;28;21003;-75
2021/08/17 05:33:56;;;;;;;31.60;18.00;;;;;;;;;;4958399;28;20440;-75
2021/08/17 05:36:23;;;;;;;26.77;16.40;;;;;;;;;;4978458;28;20444;-76
2021/08/17 05:38:50;;;;;;;30.07;16.73;;;;;;;;;;4978374;28;20833;-74
2021/08/17 05:41:17;;;;;;;25.27;14.97;;;;;;;;;;4978261;28;20462;-74
2021/08/17 05:43:46;;;;;;;29.33;16.07;;;;;;;;;;4969851;28;20467;-76
2021/08/17 05:46:13;;;;;;;24.60;14.63;;;;;;;;;;4962626;28;20454;-74
2021/08/17 05:48:40;;;;;;;28.07;15.30;;;;;;;;;;4956581;28;20776;-74
2021/08/17 05:51:09;;;;;;;25.93;15.17;;;;;;;;;;4956483;29;20867;-76
2021/08/17 05:53:36;;;;;;;30.93;15.77;;;;;;;;;;4956428;28;20448;-75
2021/08/17 05:56:04;;;;;;;30.43;18.57;;;;;;;;;;4958959;28;20439;-74
2021/08/17 05:58:31;;;;;;;28.10;17.17;;;;;;;;;;4977874;28;20487;-75
2021/08/17 06:01:00;;;;;;;26.90;16.47;;;;;;;;;;4977714;28;21045;-74
2021/08/17 06:03:27;;;;;;;33.70;17.20;;;;;;;;;;4977912;28;20539;-75
2021/08/17 06:05:57;;;;;;;28.83;14.70;;;;;;;;;;4968939;28;20446;-75
2021/08/17 06:08:24;;;;;;;29.07;15.97;;;;;;;;;;4962317;28;20444;-74
2021/08/17 06:10:51;;;;;;;31.67;16.77;;;;;;;;;;4974838;28;20973;-76
2021/08/17 06:13:19;;;;;;;30.03;17.67;;;;;;;;;;4975288;28;20448;-75
2021/08/17 06:15:46;;;;;;;27.97;15.30;;;;;;;;;;4975698;28;20448;-75
2021/08/17 06:18:14;;;;;;;27.00;16.00;;;;;;;;;;4975653;28;20496;-75
2021/08/17 06:20:41;;;;;;;29.10;17.50;;;;;;;;;;4975726;28;20472;-75
2021/08/17 06:23:08;;;;;;;30.03;16.17;;;;;;;;;;4964132;28;20441;-74
2021/08/17 06:25:36;;;;;;;30.73;16.13;;;;;;;;;;4962832;28;20453;-75
2021/08/17 06:28:08;;;;;;;28.50;16.07;;;;;;;;;;4961637;28;20808;-76
2021/08/17 06:30:35;;;;;;;32.67;17.87;;;;;;;;;;4955772;28;20990;-75
2021/08/17 06:33:02;;;;;;;27.37;16.67;;;;;;;;;;4955900;28;20447;-76
2021/08/17 06:35:30;;;;;;;33.50;17.27;;;;;;;;;;4961760;28;20454;-75
2021/08/17 06:37:58;;;;;;;36.00;19.13;;;;;;;;;;4977211;28;20480;-74
2021/08/17 06:40:26;;;;;;;27.00;17.30;;;;;;;;;;4959938;28;20978;-75
2021/08/17 06:42:53;;;;;;;36.13;17.60;;;;;;;;;;4975862;28;20473;-76
2021/08/17 06:45:21;;;;;;;29.50;16.07;;;;;;;;;;4948383;28;20442;-75
2021/08/17 06:47:49;;;;;;;32.83;18.67;;;;;;;;;;4962776;28;20510;-74
2021/08/17 06:50:16;;;;;;;26.67;16.80;;;;;;;;;;4957010;28;20467;-73
2021/08/17 06:52:45;;;;;;;27.20;17.23;;;;;;;;;;4974555;28;20427;-74
2021/08/17 06:55:13;;;;;;;23.87;16.00;;;;;;;;;;4957559;28;20422;-74
2021/08/17 06:57:40;;;;;;;21.03;15.27;;;;;;;;;;4957455;28;21976;-74
2021/08/17 07:00:09;;;;;;;25.00;15.37;;;;;;;;;;4975078;28;20555;-74
2021/08/17 07:02:36;;;;;;;25.13;15.20;;;;;;;;;;4948854;28;20440;-74
2021/08/17 07:05:04;;;;;;;29.63;16.90;;;;;;;;;;4976672;28;20427;-75
2021/08/17 07:07:31;;;;;;;26.40;15.87;;;;;;;;;;4966803;28;20776;-73
2021/08/17 07:10:00;;;;;;;27.17;15.87;;;;;;;;;;4961404;28;20931;-73
2021/08/17 07:12:27;;;;;;;24.93;16.73;;;;;;;;;;4965329;28;20434;-74
2021/08/17 07:14:54;;;;;;;22.17;15.30;;;;;;;;;;4955018;28;20449;-73
2021/08/17 07:17:21;;;;;;;24.57;14.83;;;;;;;;;;4955834;28;20817;-75
2021/08/17 07:19:48;;;;;;;25.50;16.07;;;;;;;;;;4970072;28;20444;-73
2021/08/17 07:22:16;;;;;;;25.43;15.87;;;;;;;;;;4971357;28;20475;-75
2021/08/17 07:24:43;;;;;;;22.57;15.00;;;;;;;;;;4976464;28;20420;-74
2021/08/17 07:27:11;;;;;;;25.63;16.90;;;;;;;;;;4976458;28;20420;-73
2021/08/17 07:29:39;;;;;;;23.10;15.63;;;;;;;;;;4967580;28;20417;-74
2021/08/17 07:32:06;;;;;;;27.13;15.33;;;;;;;;;;4960519;28;20415;-72
2021/08/17 07:34:33;;;;;;;23.30;14.50;;;;;;;;;;4963107;28;20427;-75
2021/08/17 07:37:01;;;;;;;23.17;15.17;;;;;;;;;;4973162;28;20412;-74
2021/08/17 07:39:28;;;;;;;28.30;16.67;;;;;;;;;;4973684;28;20484;-76
2021/08/17 07:41:56;;;;;;;22.07;15.90;;;;;;;;;;4973900;28;20823;-74
2021/08/17 07:44:25;;;;;;;22.30;15.80;;;;;;;;;;4975971;28;20938;-74
2021/08/17 07:46:53;;;;;;;25.07;15.40;;;;;;;;;;4975838;28;20444;-75
2021/08/17 07:49:20;;;;;;;28.53;17.30;;;;;;;;;;4967031;28;20528;-74
2021/08/17 07:51:47;;;;;;;26.63;15.60;;;;;;;;;;4963722;28;20461;-73
2021/08/17 07:54:14;;;;;;;24.57;16.40;;;;;;;;;;4959880;28;20445;-74
2021/08/17 07:56:41;;;;;;;23.00;15.57;;;;;;;;;;4971592;28;20520;-73
2021/08/17 07:59:09;;;;;;;26.63;17.43;;;;;;;;;;4967522;28;20854;-74
2021/08/17 08:01:37;;;;;;;23.90;17.10;;;;;;;;;;4954285;28;20784;-74
2021/08/17 08:04:04;;;;;;;23.10;14.90;;;;;;;;;;4956887;28;21016;-74
2021/08/17 08:06:31;;;;;;;23.70;15.00;;;;;;;;;;4975658;28;20448;-74
2021/08/17 08:08:59;;;;;;;22.63;15.93;;;;;;;;;;4974568;28;20423;-73
2021/08/17 08:11:26;;;;;;;27.40;17.00;;;;;;;;;;4959592;28;20442;-74
2021/08/17 08:13:53;;;;;;;26.80;15.17;;;;;;;;;;4958788;28;20459;-74
2021/08/17 08:16:20;;;;;;;24.40;14.93;;;;;;;;;;4959490;28;20414;-74
2021/08/17 08:18:49;;;;;;;28.83;15.63;;;;;;;;;;4954545;28;20489;-75
2021/08/17 08:21:16;;;;;;;20.03;15.10;;;;;;;;;;4953965;28;20458;-74
2021/08/17 08:23:43;;;;;;;24.57;15.10;;;;;;;;;;4955331;28;20811;-74
2021/08/17 08:26:11;;;;;;;21.43;13.90;;;;;;;;;;4973231;28;20817;-74
2021/08/17 08:28:38;;;;;;;22.73;14.97;;;;;;;;;;4958167;28;20452;-74
2021/08/17 08:31:06;;;;;;;24.37;15.87;;;;;;;;;;4975044;28;20468;-74
2021/08/17 08:33:33;;;;;;;19.80;14.50;;;;;;;;;;4974607;28;20436;-75
2021/08/17 08:36:02;;;;;;;22.23;15.40;;;;;;;;;;4969416;28;20449;-74
2021/08/17 08:38:29;;;;;;;21.70;14.77;;;;;;;;;;4959193;28;20478;-75
2021/08/17 08:40:56;;;;;;;21.07;14.50;;;;;;;;;;4969410;28;20522;-74
2021/08/17 08:43:24;;;;;;;24.27;14.40;;;;;;;;;;4972466;28;20483;-76
2021/08/17 08:45:51;;;;;;;22.17;13.10;;;;;;;;;;4955839;28;20990;-75
2021/08/17 08:48:20;;;;;;;24.40;12.70;;;;;;;;;;4973318;28;20449;-73
2021/08/17 08:50:47;;;;;;;18.30;13.20;;;;;;;;;;4957509;28;20461;-75
2021/08/17 08:53:16;;;;;;;18.60;12.57;;;;;;;;;;4954777;28;20529;-74
2021/08/17 08:55:44;;;;;;;18.90;12.03;;;;;;;;;;4963561;28;20449;-74
2021/08/17 08:58:12;;;;;;;16.40;12.07;;;;;;;;;;4968751;28;20477;-75
2021/08/17 09:00:39;;;;;;;14.30;11.97;;;;;;;;;;4969042;28;20767;-75
2021/08/17 09:03:09;;;;;;;17.97;11.70;;;;;;;;;;4971654;28;20539;-74
2021/08/17 09:05:50;;;;;;;18.70;12.33;;;;;;;;;;4970000;28;20456;-75
2021/08/17 09:08:21;;;;;;;19.10;13.87;;;;;;;;;;4957286;28;20452;-74
2021/08/17 09:10:48;;;;;;;17.53;12.47;;;;;;;;;;4974397;28;20818;-72
2021/08/17 09:13:15;;;;;;;19.43;12.90;;;;;;;;;;4971389;28;20438;-75
2021/08/17 09:15:43;;;;;;;22.40;13.00;;;;;;;;;;4958985;28;20429;-72
2021/08/17 09:18:10;;;;;;;26.17;14.70;;;;;;;;;;4962810;28;20643;-74
2021/08/17 09:20:42;;;;;;;19.40;13.23;;;;;;;;;;4972413;28;20460;-72
2021/08/17 09:23:24;;;;;;;20.77;12.77;;;;;;;;;;4955605;28;20798;-74
2021/08/17 09:25:58;;;;;;;16.70;12.13;;;;;;;;;;4958077;28;20945;-75
2021/08/17 09:28:26;;;;;;;18.70;13.07;;;;;;;;;;4967815;28;20465;-76
2021/08/17 09:30:53;;;;;;;22.03;13.30;;;;;;;;;;4970840;28;20476;-77
2021/08/17 09:33:20;;;;;;;19.00;12.27;;;;;;;;;;4970707;28;20444;-76
2021/08/17 09:35:49;;;;;;;18.40;14.20;;;;;;;;;;4966135;28;20943;-75
2021/08/17 09:38:17;;;;;;;20.10;13.30;;;;;;;;;;4955061;28;20452;-76
2021/08/17 09:40:44;;;;;;;20.40;13.50;;;;;;;;;;4963979;28;20465;-75
2021/08/17 09:43:14;;;;;;;21.00;13.67;;;;;;;;;;4969019;28;20480;-75
2021/08/17 09:45:42;;;;;;;16.40;12.87;;;;;;;;;;4968492;28;20453;-75
2021/08/17 09:48:12;;;;;;;20.50;11.93;;;;;;;;;;4951936;28;20488;-74
2021/08/17 09:50:41;;;;;;;20.90;13.60;;;;;;;;;;4968997;28;20491;-73
2021/08/17 09:53:10;;;;;;;18.50;12.67;;;;;;;;;;4968935;28;20495;-74
2021/08/17 09:55:46;;;;;;;18.63;12.10;;;;;;;;;;4971138;28;20447;-75
2021/08/17 09:58:23;;;;;;;23.63;14.40;;;;;;;;;;4965473;28;20579;-76
2021/08/17 10:00:50;;;;;;;19.17;13.43;;;;;;;;;;4937694;28;20464;-74
2021/08/17 10:03:18;;;;;;;18.70;13.13;;;;;;;;;;4933232;29;20454;-75
2021/08/17 10:05:45;;;;;;;19.77;13.20;;;;;;;;;;4949668;29;20449;-75
2021/08/17 10:08:13;;;;;;;16.90;12.97;;;;;;;;;;4949557;28;20532;-75
2021/08/17 10:10:41;;;;;;;20.37;14.27;;;;;;;;;;4949783;28;20468;-75
2021/08/17 10:13:11;;;;;;;21.97;14.63;;;;;;;;;;4969703;28;20942;-75
2021/08/17 10:15:42;;;;;;;16.97;12.73;;;;;;;;;;4969655;28;20472;-74
2021/08/17 10:18:09;;;;;;;17.53;12.13;;;;;;;;;;4971585;28;20448;-74
2021/08/17 10:20:38;;;;;;;21.43;13.50;;;;;;;;;;4968817;28;20877;-73
2021/08/17 10:23:06;;;;;;;19.77;14.70;;;;;;;;;;4958325;28;20508;-75
2021/08/17 10:25:43;;;;;;;19.20;12.90;;;;;;;;;;4953504;28;20456;-74
2021/08/17 10:28:23;;;;;;;19.17;13.63;;;;;;;;;;4935413;29;20767;-74
2021/08/17 10:30:51;;;;;;;23.17;14.10;;;;;;;;;;4952499;28;20710;-75
2021/08/17 10:33:38;;;;;;;20.70;13.70;;;;;;;;;;4953789;28;20454;-76
2021/08/17 10:36:05;;;;;;;24.30;14.83;;;;;;;;;;4973465;28;20849;-75
2021/08/17 10:38:48;;;;;;;25.20;14.07;;;;;;;;;;4960289;28;20578;-75
2021/08/17 10:41:15;;;;;;;20.37;14.20;;;;;;;;;;4958491;28;20550;-75
2021/08/17 10:43:57;;;;;;;19.17;12.90;;;;;;;;;;4964335;28;20477;-75
2021/08/17 10:46:40;;;;;;;16.70;12.00;;;;;;;;;;4943844;28;20447;-75
2021/08/17 10:49:24;;;;;;;18.90;12.50;;;;;;;;;;4970930;28;20449;-75
2021/08/17 10:51:51;;;;;;;18.07;11.50;;;;;;;;;;4970458;28;20465;-75
2021/08/17 10:54:19;;;;;;;16.73;12.80;;;;;;;;;;4971569;28;20455;-74
2021/08/17 10:56:47;;;;;;;17.13;12.13;;;;;;;;;;4972314;28;20969;-75
2021/08/17 10:59:15;;;;;;;16.50;12.07;;;;;;;;;;4967233;28;20489;-75
2021/08/17 11:01:46;;;;;;;18.37;13.03;;;;;;;;;;4939960;28;20844;-75
2021/08/17 11:04:20;;;;;;;25.30;14.77;;;;;;;;;;4941280;28;20484;-75
2021/08/17 11:06:48;;;;;;;19.07;12.47;;;;;;;;;;4970217;28;20416;-74
2021/08/17 11:09:16;;;;;;;16.37;11.50;;;;;;;;;;4953865;28;20521;-75
2021/08/17 11:11:45;;;;;;;15.67;12.17;;;;;;;;;;4971412;28;20461;-75
2021/08/17 11:14:13;;;;;;;16.80;11.77;;;;;;;;;;4972191;28;20896;-74
2021/08/17 11:16:41;;;;;;;19.10;13.73;;;;;;;;;;4966268;28;20445;-75
2021/08/17 11:19:10;;;;;;;15.63;11.63;;;;;;;;;;4967324;28;20928;-75
2021/08/17 11:21:38;;;;;;;14.73;11.13;;;;;;;;;;4987333;28;20480;-75
2021/08/17 11:24:20;;;;;;;18.50;12.60;;;;;;;;;;4941462;28;20465;-75
2021/08/17 11:26:48;;;;;;;16.83;13.40;;;;;;;;;;4959045;28;20502;-74
2021/08/17 11:29:16;;;;;;;15.00;11.37;;;;;;;;;;4948109;28;20819;-74
2021/08/17 11:31:45;;;;;;;17.00;13.10;;;;;;;;;;4937923;29;20477;-74
2021/08/17 11:34:15;;;;;;;16.90;11.60;;;;;;;;;;4954430;28;20426;-75
2021/08/17 11:36:42;;;;;;;16.30;11.60;;;;;;;;;;4957214;28;20463;-74
2021/08/17 11:39:24;;;;;;;20.50;12.10;;;;;;;;;;4975932;28;20495;-74
2021/08/17 11:41:52;;;;;;;14.83;10.47;;;;;;;;;;4941440;29;20895;-75
2021/08/17 11:44:20;;;;;;;19.07;10.40;;;;;;;;;;4956638;28;20450;-75
2021/08/17 11:46:47;;;;;;;22.23;11.80;;;;;;;;;;4943065;28;20438;-73
2021/08/17 11:49:29;;;;;;;20.83;10.33;;;;;;;;;;4949653;28;20448;-73
2021/08/17 11:52:06;;;;;;;14.30;9.33;;;;;;;;;;4957680;28;20472;-74
2021/08/17 11:54:34;;;;;;;11.40;9.40;;;;;;;;;;4973740;28;20450;-74
2021/08/17 11:57:02;;;;;;;10.90;8.30;;;;;;;;;;4971999;28;20415;-74
2021/08/17 11:59:44;;;;;;;15.17;9.60;;;;;;;;;;4973258;28;20481;-74
2021/08/17 12:02:12;;;;;;;12.57;8.57;;;;;;;;;;4960486;28;20876;-74
2021/08/17 12:04:39;;;;;;;16.43;9.20;;;;;;;;;;4957689;28;20419;-74
2021/08/17 12:07:08;;;;;;;12.43;9.30;;;;;;;;;;4972138;28;20460;-74
2021/08/17 12:09:36;;;;;;;14.47;9.63;;;;;;;;;;4958229;28;20441;-74
2021/08/17 12:12:04;;;;;;;14.03;9.13;;;;;;;;;;4950322;28;20425;-76
2021/08/17 12:14:31;;;;;;;12.97;8.83;;;;;;;;;;4973353;28;20470;-76
2021/08/17 12:16:59;;;;;;;11.77;9.13;;;;;;;;;;4972685;28;20832;-75
2021/08/17 12:19:26;;;;;;;12.13;9.27;;;;;;;;;;4973364;28;20573;-76
2021/08/17 12:21:54;;;;;;;11.67;9.27;;;;;;;;;;4974627;28;20472;-76
2021/08/17 12:24:23;;;;;;;14.17;8.40;;;;;;;;;;4975148;28;20443;-76
2021/08/17 12:26:54;;;;;;;12.07;8.67;;;;;;;;;;4975393;28;20411;-76
2021/08/17 12:29:23;;;;;;;11.30;8.03;;;;;;;;;;4972851;28;20474;-76
2021/08/17 12:31:50;;;;;;;13.20;9.37;;;;;;;;;;4959275;28;20456;-76
2021/08/17 12:34:18;;;;;;;13.03;9.03;;;;;;;;;;4966389;28;20450;-75
2021/08/17 12:36:46;;;;;;;10.50;7.57;;;;;;;;;;4972758;28;20414;-75
2021/08/17 12:39:15;;;;;;;12.13;7.70;;;;;;;;;;4955497;28;20448;-75
2021/08/17 12:41:49;;;;;;;11.73;8.40;;;;;;;;;;4971789;28;20459;-76
2021/08/17 12:44:17;;;;;;;10.87;7.60;;;;;;;;;;4957340;28;20467;-75
2021/08/17 12:46:59;;;;;;;12.63;8.80;;;;;;;;;;4974641;28;20425;-75
2021/08/17 12:49:38;;;;;;;13.50;8.07;;;;;;;;;;4940695;28;20456;-76
2021/08/17 12:52:20;;;;;;;10.00;7.80;;;;;;;;;;4956090;28;20934;-76
2021/08/17 12:54:47;;;;;;;8.90;6.40;;;;;;;;;;4958169;28;20475;-75
2021/08/17 12:57:18;;;;;;;8.20;6.37;;;;;;;;;;4968643;28;20449;-76
2021/08/17 12:59:45;;;;;;;13.43;8.20;;;;;;;;;;4972244;28;20492;-74
2021/08/17 13:02:12;;;;;;;13.67;6.90;;;;;;;;;;4972118;28;20464;-75
2021/08/17 13:04:39;;;;;;;10.23;6.87;;;;;;;;;;4964738;28;20448;-76
2021/08/17 13:07:06;;;;;;;12.00;7.13;;;;;;;;;;4973381;28;20455;-76
2021/08/17 13:09:34;;;;;;;10.10;7.07;;;;;;;;;;4974646;28;20463;-75
2021/08/17 13:12:01;;;;;;;12.20;7.10;;;;;;;;;;4974709;28;20448;-75
2021/08/17 13:14:29;;;;;;;8.30;6.60;;;;;;;;;;4970794;28;20798;-75
2021/08/17 13:16:56;;;;;;;8.97;7.00;;;;;;;;;;4959054;28;20437;-75
2021/08/17 13:19:25;;;;;;;10.10;7.57;;;;;;;;;;4962988;28;20958;-75
2021/08/17 13:21:52;;;;;;;13.03;7.17;;;;;;;;;;4972420;28;20501;-75
2021/08/17 13:24:19;;;;;;;8.80;6.90;;;;;;;;;;4972447;28;20535;-75
2021/08/17 13:26:46;;;;;;;10.07;6.53;;;;;;;;;;4971738;28;20415;-74
2021/08/17 13:29:14;;;;;;;9.10;6.53;;;;;;;;;;4971385;28;20463;-75
2021/08/17 13:31:42;;;;;;;9.83;6.63;;;;;;;;;;4967639;28;20459;-75
2021/08/17 13:34:09;;;;;;;9.33;7.10;;;;;;;;;;4974233;28;20426;-75
2021/08/17 13:36:36;;;;;;;11.60;6.90;;;;;;;;;;4971127;28;20528;-75
2021/08/17 13:39:04;;;;;;;10.90;7.30;;;;;;;;;;4958606;28;20440;-74
2021/08/17 13:41:31;;;;;;;9.83;6.40;;;;;;;;;;4965318;28;20491;-73
2021/08/17 13:43:59;;;;;;;11.17;6.70;;;;;;;;;;4966928;28;20431;-73
2021/08/17 13:46:26;;;;;;;8.93;6.37;;;;;;;;;;4967567;28;20422;-74
2021/08/17 13:48:55;;;;;;;9.43;6.60;;;;;;;;;;4968752;28;20422;-74
2021/08/17 13:51:23;;;;;;;10.37;6.70;;;;;;;;;;4970254;28;20805;-74
2021/08/17 13:53:50;;;;;;;10.07;6.50;;;;;;;;;;4958112;28;20536;-74
2021/08/17 13:56:18;;;;;;;10.90;7.70;;;;;;;;;;4958939;28;20455;-73
2021/08/17 13:58:46;;;;;;;11.07;8.20;;;;;;;;;;4972017;28;20495;-74
2021/08/17 14:01:14;;;;;;;14.57;8.90;;;;;;;;;;4974452;28;21032;-73
2021/08/17 14:03:42;;;;;;;12.53;8.10;;;;;;;;;;4974963;28;20539;-74
2021/08/17 14:06:11;;;;;;;13.13;7.87;;;;;;;;;;4973734;28;20439;-73
2021/08/17 14:08:38;;;;;;;11.00;6.87;;;;;;;;;;4974872;28;20425;-73
2021/08/17 14:11:06;;;;;;;11.27;7.57;;;;;;;;;;4976337;28;20439;-74
2021/08/17 14:13:33;;;;;;;11.23;7.20;;;;;;;;;;4977481;28;20422;-76
2021/08/17 14:16:02;;;;;;;10.50;6.33;;;;;;;;;;4963124;28;20443;-76
2021/08/17 14:18:29;;;;;;;9.07;6.30;;;;;;;;;;4959565;28;20420;-74
2021/08/17 14:21:00;;;;;;;8.03;6.50;;;;;;;;;;4955362;28;20456;-75
2021/08/17 14:23:29;;;;;;;8.80;6.30;;;;;;;;;;4956064;28;20446;-74
2021/08/17 14:25:56;;;;;;;8.23;6.37;;;;;;;;;;4956183;28;20448;-75
2021/08/17 14:28:23;;;;;;;9.17;6.20;;;;;;;;;;4965148;28;20467;-75